Time;durP1;ratioP1;P1;durP2;ratioP2;P2;SDS_P1;SDS_P2;PMS_P1;PMS_P2;Temp;Humidity;BMP_temperature;BMP_pressure;BME280_temperature;BME280_humidity;BME280_pressure;Samples;Min_cycle;Max_cycle;Signal;HPM_P1;HPM_P2
2022/12/03 00:00:48;;;;;;;131.10;83.50;;;;;;;;;;4996335;28;20022;-74
2022/12/03 00:03:14;;;;;;;109.38;70.35;;;;;;;;;;4996594;28;20086;-73
2022/12/03 00:05:40;;;;;;;90.95;56.10;;;;;;;;;;4996390;28;20460;-75
2022/12/03 00:08:06;;;;;;;89.70;56.20;;;;;;;;;;4996722;28;20538;-75
2022/12/03 00:10:32;;;;;;;85.32;54.78;;;;;;;;;;4996553;28;20057;-74
2022/12/03 00:12:58;;;;;;;96.70;59.42;;;;;;;;;;4996781;28;20026;-74
2022/12/03 00:15:24;;;;;;;93.85;59.88;;;;;;;;;;4996897;28;20192;-74
2022/12/03 00:17:50;;;;;;;93.30;58.08;;;;;;;;;;4996400;28;20033;-74
2022/12/03 00:20:18;;;;;;;87.25;51.63;;;;;;;;;;4996169;28;20058;-73
2022/12/03 00:22:44;;;;;;;81.18;51.42;;;;;;;;;;4994647;28;20037;-74
2022/12/03 00:25:10;;;;;;;75.03;49.22;;;;;;;;;;4995387;28;20481;-74
2022/12/03 00:27:36;;;;;;;77.78;49.50;;;;;;;;;;4995076;28;20034;-73
2022/12/03 00:30:03;;;;;;;71.18;46.47;;;;;;;;;;4996561;28;20026;-75
2022/12/03 00:32:29;;;;;;;82.05;50.15;;;;;;;;;;4996263;28;20433;-79
2022/12/03 00:34:55;;;;;;;75.10;48.22;;;;;;;;;;4995679;28;20397;-76
2022/12/03 00:37:21;;;;;;;58.72;40.08;;;;;;;;;;4995910;28;20026;-75
2022/12/03 00:39:47;;;;;;;58.30;40.45;;;;;;;;;;4995477;28;20035;-74
2022/12/03 00:42:13;;;;;;;57.95;41.38;;;;;;;;;;4996028;28;20540;-76
2022/12/03 00:44:39;;;;;;;64.88;41.30;;;;;;;;;;4995995;28;20404;-74
2022/12/03 00:47:05;;;;;;;61.47;39.92;;;;;;;;;;4995662;28;20026;-77
2022/12/03 00:49:31;;;;;;;62.40;38.90;;;;;;;;;;4995505;28;20022;-75
2022/12/03 00:51:57;;;;;;;56.83;39.30;;;;;;;;;;4994017;28;20046;-76
2022/12/03 00:54:23;;;;;;;60.03;38.45;;;;;;;;;;4993273;28;20030;-76
2022/12/03 00:56:49;;;;;;;64.20;41.67;;;;;;;;;;4995623;28;20077;-75
2022/12/03 00:59:15;;;;;;;58.35;39.78;;;;;;;;;;4996163;28;20042;-76
2022/12/03 01:01:41;;;;;;;61.80;39.88;;;;;;;;;;5002189;28;20033;-75
2022/12/03 01:04:07;;;;;;;59.25;38.25;;;;;;;;;;4978437;28;20117;-76
2022/12/03 01:06:34;;;;;;;62.50;38.40;;;;;;;;;;4995325;28;20022;-76
2022/12/03 01:09:00;;;;;;;61.10;38.47;;;;;;;;;;4994462;28;20034;-72
2022/12/03 01:11:38;;;;;;;56.58;36.05;;;;;;;;;;4995528;28;20015;-71
2022/12/03 01:14:08;;;;;;;52.70;34.63;;;;;;;;;;4995546;28;20731;-71
2022/12/03 01:16:34;;;;;;;48.33;32.97;;;;;;;;;;4995840;28;20098;-73
2022/12/03 01:19:01;;;;;;;52.13;32.67;;;;;;;;;;4995140;28;20141;-74
2022/12/03 01:21:27;;;;;;;49.70;33.95;;;;;;;;;;4995266;28;20019;-74
2022/12/03 01:23:53;;;;;;;55.05;36.65;;;;;;;;;;4975503;28;20511;-75
2022/12/03 01:26:19;;;;;;;65.88;42.35;;;;;;;;;;4995278;28;20022;-75
2022/12/03 01:28:45;;;;;;;59.10;35.95;;;;;;;;;;4995243;28;20023;-75
2022/12/03 01:33:56;;;;;;;52.28;33.95;;;;;;;;;;4995003;28;20495;-74
2022/12/03 01:36:23;;;;;;;42.83;31.35;;;;;;;;;;4995146;28;20026;-73
2022/12/03 01:38:49;;;;;;;44.28;32.38;;;;;;;;;;4994891;28;20034;-73
2022/12/03 01:41:16;;;;;;;47.08;31.83;;;;;;;;;;4995079;28;20068;-73
2022/12/03 01:43:42;;;;;;;53.17;32.50;;;;;;;;;;4994836;28;20019;-73
2022/12/03 01:46:10;;;;;;;50.80;33.78;;;;;;;;;;4995560;28;20033;-73
2022/12/03 01:48:37;;;;;;;51.78;33.25;;;;;;;;;;4994774;28;20065;-73
2022/12/03 01:51:03;;;;;;;72.60;43.88;;;;;;;;;;4994266;28;20486;-73
2022/12/03 01:53:29;;;;;;;61.58;38.60;;;;;;;;;;4989243;28;20035;-74
2022/12/03 01:55:55;;;;;;;51.30;34.30;;;;;;;;;;4994832;28;20022;-74
2022/12/03 01:58:24;;;;;;;52.90;33.63;;;;;;;;;;4994556;28;20031;-72
2022/12/03 02:00:51;;;;;;;46.38;31.30;;;;;;;;;;4994688;28;20022;-74
2022/12/03 02:03:18;;;;;;;54.65;35.83;;;;;;;;;;4994677;28;20070;-73
2022/12/03 02:05:44;;;;;;;49.22;33.42;;;;;;;;;;4993689;28;20026;-74
2022/12/03 02:08:26;;;;;;;45.92;32.33;;;;;;;;;;4994731;28;20385;-73
2022/12/03 02:10:53;;;;;;;50.65;32.08;;;;;;;;;;4994430;28;20023;-74
2022/12/03 02:13:19;;;;;;;48.95;33.65;;;;;;;;;;4994868;28;20369;-75
2022/12/03 02:15:45;;;;;;;55.15;35.50;;;;;;;;;;4992020;28;20109;-74
2022/12/03 02:18:12;;;;;;;53.78;36.33;;;;;;;;;;4985588;28;20589;-74
2022/12/03 02:20:43;;;;;;;54.08;36.80;;;;;;;;;;4993724;28;20077;-74
2022/12/03 02:23:10;;;;;;;47.83;32.35;;;;;;;;;;4974667;28;20031;-73
2022/12/03 02:25:36;;;;;;;47.13;32.53;;;;;;;;;;4993810;28;20038;-72
2022/12/03 02:28:03;;;;;;;43.40;30.20;;;;;;;;;;4994036;28;20018;-72
2022/12/03 02:30:30;;;;;;;43.53;30.25;;;;;;;;;;4994242;28;20473;-73
2022/12/03 02:33:11;;;;;;;43.38;30.48;;;;;;;;;;4915567;29;20056;-72
2022/12/03 02:35:38;;;;;;;50.50;32.25;;;;;;;;;;4914830;29;20447;-72
2022/12/03 02:38:18;;;;;;;59.65;38.28;;;;;;;;;;4915008;29;20036;-73
2022/12/03 02:40:46;;;;;;;45.10;31.00;;;;;;;;;;4915178;29;20048;-72
2022/12/03 02:43:15;;;;;;;46.88;30.67;;;;;;;;;;4915266;29;20028;-73
2022/12/03 02:45:43;;;;;;;42.30;28.33;;;;;;;;;;4914569;29;20040;-72
2022/12/03 02:48:09;;;;;;;43.22;30.52;;;;;;;;;;4914734;29;20040;-73
2022/12/03 02:50:39;;;;;;;44.72;29.70;;;;;;;;;;4914903;29;20048;-73
2022/12/03 02:53:07;;;;;;;42.05;29.17;;;;;;;;;;4914518;29;20039;-72
2022/12/03 02:55:34;;;;;;;45.03;30.13;;;;;;;;;;4914913;29;20044;-73
2022/12/03 02:58:00;;;;;;;46.90;30.90;;;;;;;;;;4898898;29;20036;-74
2022/12/03 03:00:26;;;;;;;46.42;30.42;;;;;;;;;;4914458;29;20036;-74
2022/12/03 03:02:52;;;;;;;41.70;29.73;;;;;;;;;;4898427;29;20032;-74
2022/12/03 03:05:20;;;;;;;42.47;29.40;;;;;;;;;;4910193;29;20087;-73
2022/12/03 03:07:46;;;;;;;42.75;28.63;;;;;;;;;;4914480;29;20474;-73
2022/12/03 03:10:14;;;;;;;38.63;25.58;;;;;;;;;;4933236;28;20477;-75
2022/12/03 03:12:41;;;;;;;35.90;25.98;;;;;;;;;;4993469;28;20057;-74
2022/12/03 03:15:07;;;;;;;33.47;24.10;;;;;;;;;;4993327;28;20030;-74
2022/12/03 03:17:33;;;;;;;31.05;23.48;;;;;;;;;;4992837;28;20436;-73
2022/12/03 03:19:59;;;;;;;36.75;25.48;;;;;;;;;;4992872;28;20074;-74
2022/12/03 03:22:35;;;;;;;34.08;24.23;;;;;;;;;;4993197;28;20034;-74
2022/12/03 03:25:01;;;;;;;34.58;23.70;;;;;;;;;;4993187;28;20500;-74
2022/12/03 03:27:28;;;;;;;35.10;25.15;;;;;;;;;;4993359;28;20027;-74
2022/12/03 03:29:54;;;;;;;41.20;26.10;;;;;;;;;;4992718;28;20038;-74
2022/12/03 03:32:20;;;;;;;35.03;25.20;;;;;;;;;;4993221;28;20026;-74
2022/12/03 03:34:46;;;;;;;37.15;25.30;;;;;;;;;;4975616;28;20030;-75
2022/12/03 03:37:12;;;;;;;37.92;27.13;;;;;;;;;;4993200;28;20030;-77
2022/12/03 03:39:38;;;;;;;37.55;26.33;;;;;;;;;;4993079;28;20053;-71
2022/12/03 03:42:05;;;;;;;42.10;28.45;;;;;;;;;;4993088;28;20034;-74
2022/12/03 03:44:31;;;;;;;39.38;28.17;;;;;;;;;;4993117;28;20030;-74
2022/12/03 03:46:57;;;;;;;36.35;26.88;;;;;;;;;;4993005;28;20062;-73
2022/12/03 03:49:24;;;;;;;36.65;24.75;;;;;;;;;;4993028;28;20058;-74
2022/12/03 03:51:50;;;;;;;40.90;25.63;;;;;;;;;;4992886;28;20145;-74
2022/12/03 03:54:16;;;;;;;39.63;25.58;;;;;;;;;;4986298;28;20027;-74
2022/12/03 03:56:42;;;;;;;39.55;26.17;;;;;;;;;;4993072;28;20030;-76
2022/12/03 03:59:08;;;;;;;37.47;25.77;;;;;;;;;;4992921;28;20062;-77
2022/12/03 04:01:34;;;;;;;41.33;26.23;;;;;;;;;;4975286;28;20149;-75
2022/12/03 04:04:00;;;;;;;36.22;26.25;;;;;;;;;;4993118;28;20397;-72
2022/12/03 04:06:27;;;;;;;47.13;29.08;;;;;;;;;;4992792;28;20105;-73
2022/12/03 04:08:53;;;;;;;57.42;31.65;;;;;;;;;;4992825;28;20487;-72
2022/12/03 04:14:03;;;;;;;38.28;25.67;;;;;;;;;;4992915;28;20092;-72
2022/12/03 04:16:29;;;;;;;38.50;25.08;;;;;;;;;;4992856;28;20039;-72
2022/12/03 04:18:56;;;;;;;34.90;24.33;;;;;;;;;;4992581;28;20502;-72
2022/12/03 04:24:08;;;;;;;40.33;26.40;;;;;;;;;;4991691;28;20037;-72
2022/12/03 04:29:20;;;;;;;36.53;25.83;;;;;;;;;;4996392;28;20100;-74
2022/12/03 04:37:16;;;;;;;36.35;25.58;;;;;;;;;;4983226;28;20088;-75
2022/12/03 04:39:42;;;;;;;36.53;25.10;;;;;;;;;;4996172;28;20034;-75
2022/12/03 04:42:08;;;;;;;39.08;27.20;;;;;;;;;;4996136;28;20093;-76
2022/12/03 04:44:37;;;;;;;36.97;26.20;;;;;;;;;;4995127;28;20541;-73
2022/12/03 04:47:06;;;;;;;33.30;24.48;;;;;;;;;;4978670;28;20473;-73
2022/12/03 04:49:33;;;;;;;34.83;24.75;;;;;;;;;;4996046;28;20117;-73
2022/12/03 04:51:59;;;;;;;32.75;23.75;;;;;;;;;;4995590;28;20023;-74
2022/12/03 04:54:26;;;;;;;34.83;24.00;;;;;;;;;;4989982;28;20165;-75
2022/12/03 04:56:52;;;;;;;39.70;26.38;;;;;;;;;;4995970;28;20038;-74
2022/12/03 04:59:18;;;;;;;37.03;25.48;;;;;;;;;;4995336;28;20034;-73
2022/12/03 05:01:44;;;;;;;41.72;27.52;;;;;;;;;;4995838;28;20033;-73
2022/12/03 05:04:11;;;;;;;41.92;28.13;;;;;;;;;;4995780;28;20435;-73
2022/12/03 05:06:37;;;;;;;46.53;28.80;;;;;;;;;;4995630;28;20029;-73
2022/12/03 05:09:03;;;;;;;45.95;29.08;;;;;;;;;;4995599;28;20072;-73
2022/12/03 05:11:29;;;;;;;40.15;27.27;;;;;;;;;;4978192;28;20072;-72
2022/12/03 05:13:55;;;;;;;43.88;28.75;;;;;;;;;;4995429;28;20042;-73
2022/12/03 05:16:22;;;;;;;42.08;30.42;;;;;;;;;;4995421;28;20496;-74
2022/12/03 05:18:48;;;;;;;37.45;27.40;;;;;;;;;;4995458;28;20475;-74
2022/12/03 05:21:14;;;;;;;33.80;24.80;;;;;;;;;;4995186;28;20393;-74
2022/12/03 05:23:41;;;;;;;46.10;28.95;;;;;;;;;;4994172;28;20030;-73
2022/12/03 05:26:07;;;;;;;51.28;32.47;;;;;;;;;;4995497;28;20456;-73
2022/12/03 05:28:33;;;;;;;50.28;34.28;;;;;;;;;;4995310;28;20022;-73
2022/12/03 05:30:59;;;;;;;49.35;33.00;;;;;;;;;;4995259;28;20536;-73
2022/12/03 05:33:25;;;;;;;73.43;46.30;;;;;;;;;;4995245;28;20493;-73
2022/12/03 05:35:51;;;;;;;154.23;105.80;;;;;;;;;;4995044;28;20026;-75
2022/12/03 05:38:17;;;;;;;64.22;38.97;;;;;;;;;;4977300;28;20076;-72
2022/12/03 05:40:43;;;;;;;52.55;36.22;;;;;;;;;;4977095;28;20066;-73
2022/12/03 05:43:10;;;;;;;47.30;31.65;;;;;;;;;;4995210;28;20057;-73
2022/12/03 05:45:37;;;;;;;46.35;32.35;;;;;;;;;;4995213;28;20064;-73
2022/12/03 05:48:04;;;;;;;51.03;32.78;;;;;;;;;;4995039;28;20026;-73
2022/12/03 05:50:31;;;;;;;59.95;38.28;;;;;;;;;;4994771;28;20108;-73
2022/12/03 05:52:58;;;;;;;70.07;44.80;;;;;;;;;;4976008;28;20018;-73
2022/12/03 05:55:24;;;;;;;85.00;52.92;;;;;;;;;;4990600;28;20030;-73
2022/12/03 05:57:50;;;;;;;76.00;47.63;;;;;;;;;;4994661;28;20027;-73
2022/12/03 06:00:16;;;;;;;71.35;46.88;;;;;;;;;;4994869;28;20034;-73
2022/12/03 06:02:42;;;;;;;63.38;44.53;;;;;;;;;;4995158;28;20373;-73
2022/12/03 06:05:09;;;;;;;63.28;40.95;;;;;;;;;;4977419;28;20458;-74
2022/12/03 06:07:35;;;;;;;58.92;39.22;;;;;;;;;;4994342;28;20089;-73
2022/12/03 06:10:01;;;;;;;56.33;38.95;;;;;;;;;;4994720;28;20366;-73
2022/12/03 06:12:27;;;;;;;71.72;42.95;;;;;;;;;;4977242;28;20046;-73
2022/12/03 06:14:53;;;;;;;55.38;38.08;;;;;;;;;;4994402;28;20023;-72
2022/12/03 06:17:19;;;;;;;49.65;33.85;;;;;;;;;;4994363;28;20026;-72
2022/12/03 06:19:46;;;;;;;50.72;32.88;;;;;;;;;;4994006;28;20065;-73
2022/12/03 06:22:12;;;;;;;53.55;32.47;;;;;;;;;;4976575;28;20072;-73
2022/12/03 06:24:38;;;;;;;49.60;34.05;;;;;;;;;;4993298;28;20057;-73
2022/12/03 06:27:04;;;;;;;49.25;32.65;;;;;;;;;;4994174;28;20026;-74
2022/12/03 06:29:30;;;;;;;50.33;32.78;;;;;;;;;;4994224;28;20026;-74
2022/12/03 06:31:56;;;;;;;53.95;35.17;;;;;;;;;;4993415;28;20109;-74
2022/12/03 06:34:22;;;;;;;48.92;34.35;;;;;;;;;;4994124;28;20030;-74
2022/12/03 06:36:49;;;;;;;46.25;33.25;;;;;;;;;;4994137;28;20437;-75
2022/12/03 06:39:16;;;;;;;53.30;36.35;;;;;;;;;;4993889;28;20045;-76
2022/12/03 06:41:42;;;;;;;61.90;41.60;;;;;;;;;;4993842;28;20149;-74
2022/12/03 06:44:08;;;;;;;69.88;45.28;;;;;;;;;;4993801;28;20039;-73
2022/12/03 06:46:34;;;;;;;77.35;50.75;;;;;;;;;;4976501;28;20030;-72
2022/12/03 06:49:00;;;;;;;78.68;52.22;;;;;;;;;;4976480;28;20072;-74
2022/12/03 06:51:26;;;;;;;81.20;52.22;;;;;;;;;;4993509;28;20030;-73
2022/12/03 06:53:52;;;;;;;78.15;54.00;;;;;;;;;;4987881;28;20026;-75
2022/12/03 06:56:18;;;;;;;125.00;81.18;;;;;;;;;;4993525;28;20539;-74
2022/12/03 06:58:45;;;;;;;130.60;83.55;;;;;;;;;;4993561;28;20077;-75
2022/12/03 07:01:11;;;;;;;80.88;51.50;;;;;;;;;;4976548;28;20064;-75
2022/12/03 07:03:37;;;;;;;102.95;68.55;;;;;;;;;;4976618;28;20096;-74
2022/12/03 07:06:03;;;;;;;86.85;54.00;;;;;;;;;;4988081;28;20025;-74
2022/12/03 07:08:29;;;;;;;64.55;45.90;;;;;;;;;;4985195;28;20050;-74
2022/12/03 07:10:55;;;;;;;81.60;51.30;;;;;;;;;;4993349;28;20025;-74
2022/12/03 07:13:21;;;;;;;82.43;53.70;;;;;;;;;;4993441;28;20058;-74
2022/12/03 07:15:47;;;;;;;90.18;57.67;;;;;;;;;;4993392;28;20061;-75
2022/12/03 07:18:14;;;;;;;102.05;66.60;;;;;;;;;;4993075;28;20034;-74
2022/12/03 07:20:40;;;;;;;111.35;67.88;;;;;;;;;;4992989;28;20050;-73
2022/12/03 07:23:06;;;;;;;151.90;87.78;;;;;;;;;;4991873;28;20105;-74
2022/12/03 07:25:32;;;;;;;131.75;80.78;;;;;;;;;;4993541;28;20034;-73
2022/12/03 07:27:58;;;;;;;121.40;77.53;;;;;;;;;;4993039;28;20485;-75
2022/12/03 07:30:24;;;;;;;118.55;79.07;;;;;;;;;;4993285;28;20080;-74
2022/12/03 07:32:50;;;;;;;116.75;83.60;;;;;;;;;;4992917;28;20023;-75
2022/12/03 07:35:16;;;;;;;107.70;72.32;;;;;;;;;;4975620;28;20034;-76
2022/12/03 07:37:43;;;;;;;131.05;89.05;;;;;;;;;;4975966;28;20037;-76
2022/12/03 07:40:09;;;;;;;136.07;90.25;;;;;;;;;;4992115;28;20038;-73
2022/12/03 07:42:35;;;;;;;128.65;82.45;;;;;;;;;;4993060;28;20027;-73
2022/12/03 07:45:01;;;;;;;119.43;82.45;;;;;;;;;;4993364;28;20080;-73
2022/12/03 07:47:27;;;;;;;114.43;79.50;;;;;;;;;;4993043;28;20034;-73
2022/12/03 07:49:53;;;;;;;112.70;76.05;;;;;;;;;;4975439;28;20035;-73
2022/12/03 07:52:20;;;;;;;104.03;70.57;;;;;;;;;;4992574;28;20018;-75
2022/12/03 07:54:46;;;;;;;109.85;73.82;;;;;;;;;;4987566;28;20104;-74
2022/12/03 07:57:12;;;;;;;92.55;64.53;;;;;;;;;;4992499;28;20029;-73
2022/12/03 07:59:38;;;;;;;86.57;60.28;;;;;;;;;;4992527;28;20049;-75
2022/12/03 08:02:04;;;;;;;90.90;59.88;;;;;;;;;;4993323;28;20022;-74
2022/12/03 08:04:30;;;;;;;72.85;50.30;;;;;;;;;;4996923;28;20125;-75
2022/12/03 08:06:56;;;;;;;63.45;45.53;;;;;;;;;;4979381;28;20038;-74
2022/12/03 08:09:22;;;;;;;63.80;44.28;;;;;;;;;;4979047;28;20030;-74
2022/12/03 08:11:48;;;;;;;58.78;44.05;;;;;;;;;;4996425;28;20030;-74
2022/12/03 08:14:16;;;;;;;82.18;52.13;;;;;;;;;;4978754;28;20066;-74
2022/12/03 08:16:43;;;;;;;69.93;47.97;;;;;;;;;;4996410;28;20056;-74
2022/12/03 08:19:10;;;;;;;62.05;43.90;;;;;;;;;;4996206;28;20034;-73
2022/12/03 08:21:36;;;;;;;67.32;46.65;;;;;;;;;;4996169;28;20489;-73
2022/12/03 08:24:14;;;;;;;64.13;45.28;;;;;;;;;;4995989;28;20054;-73
2022/12/03 08:26:40;;;;;;;67.93;49.03;;;;;;;;;;4996313;28;20477;-73
2022/12/03 08:29:10;;;;;;;75.75;51.78;;;;;;;;;;4995748;28;20073;-73
2022/12/03 08:31:36;;;;;;;79.80;55.67;;;;;;;;;;4996241;28;20026;-73
2022/12/03 08:34:30;;;;;;;91.43;64.32;;;;;;;;;;4996234;28;20029;-73
2022/12/03 08:37:01;;;;;;;95.82;65.35;;;;;;;;;;4976334;28;20026;-73
2022/12/03 08:39:29;;;;;;;102.03;72.20;;;;;;;;;;4996561;28;20070;-73
2022/12/03 08:44:42;;;;;;;125.53;85.65;;;;;;;;;;4996591;28;20045;-75
2022/12/03 08:47:08;;;;;;;102.90;74.78;;;;;;;;;;4978771;28;20461;-79
2022/12/03 08:49:38;;;;;;;100.28;72.60;;;;;;;;;;4994701;28;20511;-74
2022/12/03 08:52:12;;;;;;;104.13;74.55;;;;;;;;;;4995668;28;20080;-74
2022/12/03 08:54:39;;;;;;;100.07;77.65;;;;;;;;;;4990777;28;20392;-75
2022/12/03 08:57:23;;;;;;;100.55;72.07;;;;;;;;;;4995781;28;20061;-74
2022/12/03 08:59:50;;;;;;;91.53;66.40;;;;;;;;;;4995449;28;20456;-75
2022/12/03 09:02:22;;;;;;;87.80;65.43;;;;;;;;;;4995619;28;20019;-74
2022/12/03 09:04:48;;;;;;;86.55;65.05;;;;;;;;;;4995620;28;20036;-75
2022/12/03 09:07:14;;;;;;;91.75;67.32;;;;;;;;;;4995214;28;20477;-74
2022/12/03 09:09:40;;;;;;;89.10;66.78;;;;;;;;;;4995728;28;20432;-74
2022/12/03 09:12:06;;;;;;;95.82;70.75;;;;;;;;;;4995501;28;20019;-76
2022/12/03 09:14:32;;;;;;;100.45;73.47;;;;;;;;;;4994101;28;20025;-73
2022/12/03 09:16:58;;;;;;;99.88;75.00;;;;;;;;;;4995509;28;20088;-73
2022/12/03 09:19:25;;;;;;;103.50;74.45;;;;;;;;;;4995196;28;20035;-74
2022/12/03 09:21:52;;;;;;;107.05;83.30;;;;;;;;;;4995053;28;20105;-74
2022/12/03 09:24:18;;;;;;;123.72;93.60;;;;;;;;;;4995292;28;20026;-74
2022/12/03 09:26:44;;;;;;;128.60;94.85;;;;;;;;;;4995274;28;20014;-73
2022/12/03 09:29:10;;;;;;;131.35;104.57;;;;;;;;;;4995086;28;20026;-75
2022/12/03 09:31:37;;;;;;;127.80;101.10;;;;;;;;;;4993398;28;20073;-73
2022/12/03 09:34:04;;;;;;;126.18;97.82;;;;;;;;;;4977341;28;20362;-76
2022/12/03 09:36:30;;;;;;;125.32;89.95;;;;;;;;;;4994301;28;20388;-72
2022/12/03 09:38:56;;;;;;;129.50;102.03;;;;;;;;;;4994061;28;20022;-73
2022/12/03 09:41:23;;;;;;;155.82;118.78;;;;;;;;;;4994820;28;20054;-73
2022/12/03 09:43:50;;;;;;;156.30;125.82;;;;;;;;;;4992912;28;20094;-72
2022/12/03 09:46:16;;;;;;;136.15;109.20;;;;;;;;;;4994430;28;20026;-75
2022/12/03 09:48:42;;;;;;;145.10;109.78;;;;;;;;;;4994376;28;20015;-73
2022/12/03 09:51:09;;;;;;;136.50;106.53;;;;;;;;;;4994228;28;20014;-73
2022/12/03 09:53:35;;;;;;;130.93;104.38;;;;;;;;;;4989841;28;20520;-72
2022/12/03 09:56:01;;;;;;;129.50;100.38;;;;;;;;;;4994204;28;20027;-74
2022/12/03 09:58:28;;;;;;;135.63;102.97;;;;;;;;;;4994150;28;20481;-73
2022/12/03 10:00:54;;;;;;;163.27;128.82;;;;;;;;;;4993450;28;20073;-74
2022/12/03 10:03:22;;;;;;;157.02;115.13;;;;;;;;;;4991772;28;20540;-75
2022/12/03 10:05:49;;;;;;;154.02;109.85;;;;;;;;;;4993974;28;20018;-73
2022/12/03 10:08:19;;;;;;;151.63;115.38;;;;;;;;;;4993690;28;20049;-75
2022/12/03 10:10:46;;;;;;;134.02;101.47;;;;;;;;;;4992249;28;20039;-77
2022/12/03 10:13:13;;;;;;;101.68;78.05;;;;;;;;;;4993987;28;20098;-75
2022/12/03 10:15:39;;;;;;;104.07;76.80;;;;;;;;;;4992557;28;20362;-74
2022/12/03 10:18:22;;;;;;;102.22;75.55;;;;;;;;;;4993831;28;20127;-73
2022/12/03 10:20:48;;;;;;;96.25;71.13;;;;;;;;;;4993053;28;20497;-75
2022/12/03 10:23:21;;;;;;;87.50;66.97;;;;;;;;;;4993460;28;20022;-76
2022/12/03 10:25:52;;;;;;;92.68;66.30;;;;;;;;;;4973854;28;20030;-74
2022/12/03 10:28:32;;;;;;;142.80;96.85;;;;;;;;;;4993560;28;20026;-81
2022/12/03 10:30:59;;;;;;;88.93;67.72;;;;;;;;;;4992140;28;20033;-76
2022/12/03 10:33:51;;;;;;;93.68;66.03;;;;;;;;;;4993946;28;20123;-74
2022/12/03 10:36:19;;;;;;;86.80;61.30;;;;;;;;;;4987538;28;20427;-73
2022/12/03 10:38:45;;;;;;;87.55;64.63;;;;;;;;;;4993144;28;20068;-73
2022/12/03 10:41:40;;;;;;;85.85;65.28;;;;;;;;;;4993801;28;20029;-77
2022/12/03 10:44:20;;;;;;;73.05;53.92;;;;;;;;;;4895818;29;20104;-78
2022/12/03 10:47:04;;;;;;;70.63;52.65;;;;;;;;;;4895570;29;20040;-76
2022/12/03 10:49:30;;;;;;;80.93;56.97;;;;;;;;;;4895851;29;20024;-75
2022/12/03 10:51:56;;;;;;;73.60;54.45;;;;;;;;;;4895868;29;20044;-76
2022/12/03 10:54:23;;;;;;;79.88;58.47;;;;;;;;;;4895503;29;20044;-76
2022/12/03 10:56:51;;;;;;;83.10;58.13;;;;;;;;;;4895593;29;20029;-76
2022/12/03 10:59:24;;;;;;;82.65;59.50;;;;;;;;;;4895430;29;20077;-75
2022/12/03 11:01:51;;;;;;;79.45;60.45;;;;;;;;;;4895675;29;20039;-75
2022/12/03 11:04:21;;;;;;;84.85;62.38;;;;;;;;;;4895395;29;20063;-75
2022/12/03 11:06:47;;;;;;;78.60;57.55;;;;;;;;;;4883115;29;20033;-75
2022/12/03 11:09:18;;;;;;;90.75;60.65;;;;;;;;;;4895467;29;20036;-76
2022/12/03 11:11:45;;;;;;;89.82;66.05;;;;;;;;;;4895224;29;20035;-74
2022/12/03 11:14:11;;;;;;;80.68;60.63;;;;;;;;;;4895403;29;20149;-75
2022/12/03 11:16:40;;;;;;;83.25;61.70;;;;;;;;;;4895342;29;20025;-74
2022/12/03 11:19:12;;;;;;;72.93;55.33;;;;;;;;;;4895261;29;20575;-74
2022/12/03 11:22:01;;;;;;;74.90;55.08;;;;;;;;;;4971717;28;20425;-73
2022/12/03 11:24:27;;;;;;;77.13;58.75;;;;;;;;;;4895056;29;20043;-74
2022/12/03 11:26:54;;;;;;;77.78;54.83;;;;;;;;;;4895222;29;20496;-74
2022/12/03 11:29:40;;;;;;;63.00;50.17;;;;;;;;;;4895576;29;20064;-76
2022/12/03 11:32:06;;;;;;;67.72;50.58;;;;;;;;;;4895189;29;20033;-73
2022/12/03 11:34:32;;;;;;;77.82;55.70;;;;;;;;;;4895316;29;20039;-75
2022/12/03 11:37:07;;;;;;;85.97;60.97;;;;;;;;;;4894287;29;20100;-76
2022/12/03 11:39:42;;;;;;;78.65;53.15;;;;;;;;;;4876498;29;20040;-75
2022/12/03 11:42:26;;;;;;;72.28;54.15;;;;;;;;;;4880954;29;20040;-74
2022/12/03 11:45:04;;;;;;;76.03;58.17;;;;;;;;;;4895055;29;20251;-76
2022/12/03 11:47:31;;;;;;;69.53;55.00;;;;;;;;;;4895446;29;20033;-76
2022/12/03 11:49:57;;;;;;;84.57;57.08;;;;;;;;;;4895127;29;20060;-74
2022/12/03 11:52:26;;;;;;;72.78;58.38;;;;;;;;;;4894980;29;20032;-74
2022/12/03 11:54:54;;;;;;;69.93;52.47;;;;;;;;;;4894857;29;20039;-74
2022/12/03 11:57:31;;;;;;;60.30;47.05;;;;;;;;;;4894788;29;20032;-77
2022/12/03 12:00:03;;;;;;;64.53;48.33;;;;;;;;;;4894843;29;20044;-76
2022/12/03 12:02:29;;;;;;;87.45;68.90;;;;;;;;;;4967290;28;20030;-77
2022/12/03 12:04:55;;;;;;;87.15;64.57;;;;;;;;;;4973183;28;20034;-75
2022/12/03 12:07:34;;;;;;;68.15;53.50;;;;;;;;;;4973205;28;20022;-74
2022/12/03 12:10:01;;;;;;;60.92;45.03;;;;;;;;;;4973372;28;20023;-74
2022/12/03 12:12:45;;;;;;;65.00;53.13;;;;;;;;;;4972892;28;20023;-76
2022/12/03 12:15:29;;;;;;;50.53;41.22;;;;;;;;;;4973167;28;20039;-75
2022/12/03 12:17:56;;;;;;;53.15;42.47;;;;;;;;;;4973010;28;20110;-74
2022/12/03 12:20:25;;;;;;;57.45;43.95;;;;;;;;;;4986255;28;20068;-74
2022/12/03 12:22:52;;;;;;;63.78;48.17;;;;;;;;;;4974889;28;20022;-76
2022/12/03 12:25:35;;;;;;;69.85;51.25;;;;;;;;;;4983803;28;20033;-75
2022/12/03 12:28:01;;;;;;;76.75;56.75;;;;;;;;;;4990628;28;20561;-75
2022/12/03 12:30:27;;;;;;;75.13;52.83;;;;;;;;;;4992070;28;20018;-76
2022/12/03 12:33:21;;;;;;;63.83;45.72;;;;;;;;;;4986132;28;20077;-75
2022/12/03 12:35:48;;;;;;;64.50;47.28;;;;;;;;;;4986689;28;20081;-75
2022/12/03 12:38:18;;;;;;;59.85;49.00;;;;;;;;;;4991953;28;20026;-76
2022/12/03 12:40:45;;;;;;;68.55;53.17;;;;;;;;;;4992037;28;20038;-76
2022/12/03 12:43:11;;;;;;;60.90;47.20;;;;;;;;;;4992379;28;20015;-75
2022/12/03 12:45:40;;;;;;;73.13;53.35;;;;;;;;;;4992345;28;20044;-76
2022/12/03 12:48:09;;;;;;;85.50;60.80;;;;;;;;;;4992750;28;20107;-75
2022/12/03 12:50:36;;;;;;;70.82;50.38;;;;;;;;;;4995877;28;20418;-75
2022/12/03 12:53:23;;;;;;;55.13;43.65;;;;;;;;;;4995559;28;20026;-73
2022/12/03 12:55:53;;;;;;;58.72;46.80;;;;;;;;;;4986695;28;20023;-75
2022/12/03 12:58:19;;;;;;;59.58;46.45;;;;;;;;;;4992356;28;20049;-74
2022/12/03 13:00:51;;;;;;;56.25;44.60;;;;;;;;;;4992642;28;20117;-74
2022/12/03 13:03:18;;;;;;;54.78;46.05;;;;;;;;;;4995032;28;20077;-76
2022/12/03 13:05:46;;;;;;;53.25;43.38;;;;;;;;;;4994827;28;20037;-74
2022/12/03 13:08:32;;;;;;;49.55;40.22;;;;;;;;;;4994001;28;20495;-77
2022/12/03 13:11:02;;;;;;;61.33;43.60;;;;;;;;;;4993336;28;20080;-74
2022/12/03 13:13:35;;;;;;;62.17;47.28;;;;;;;;;;4995204;28;20361;-74
2022/12/03 13:16:01;;;;;;;54.45;41.13;;;;;;;;;;4995295;28;20515;-76
2022/12/03 13:18:38;;;;;;;62.00;46.85;;;;;;;;;;4991391;28;20030;-76
2022/12/03 13:21:33;;;;;;;59.53;43.00;;;;;;;;;;4991369;28;20096;-76
2022/12/03 13:24:00;;;;;;;65.55;48.53;;;;;;;;;;4893931;29;20065;-76
2022/12/03 13:26:37;;;;;;;75.88;48.08;;;;;;;;;;4896673;29;20139;-75
2022/12/03 13:29:17;;;;;;;67.88;46.95;;;;;;;;;;4896642;29;20427;-74
2022/12/03 13:31:54;;;;;;;61.22;44.42;;;;;;;;;;4896417;29;20056;-75
2022/12/03 13:34:24;;;;;;;67.05;49.75;;;;;;;;;;4897043;29;20033;-75
2022/12/03 13:36:50;;;;;;;71.18;49.90;;;;;;;;;;4897033;29;20463;-75
2022/12/03 13:39:21;;;;;;;66.40;48.80;;;;;;;;;;4896893;29;20044;-74
2022/12/03 13:44:32;;;;;;;65.43;48.75;;;;;;;;;;4897095;29;20120;-75
2022/12/03 13:47:02;;;;;;;63.50;48.30;;;;;;;;;;4897044;29;20123;-74
2022/12/03 13:49:28;;;;;;;68.05;48.95;;;;;;;;;;4896883;29;20032;-75
2022/12/03 13:51:54;;;;;;;65.00;47.80;;;;;;;;;;4897025;29;20477;-75
2022/12/03 13:54:22;;;;;;;52.90;41.35;;;;;;;;;;4906621;29;20180;-75
2022/12/03 13:56:49;;;;;;;65.00;47.25;;;;;;;;;;4896796;29;20032;-74
2022/12/03 13:59:15;;;;;;;54.03;42.08;;;;;;;;;;4900301;28;20049;-74
2022/12/03 14:01:42;;;;;;;61.80;45.78;;;;;;;;;;4993855;28;20022;-76
2022/12/03 14:04:08;;;;;;;72.80;53.45;;;;;;;;;;4993315;28;20122;-74
2022/12/03 14:06:34;;;;;;;72.70;53.30;;;;;;;;;;4994504;28;20476;-75
2022/12/03 14:09:00;;;;;;;71.68;51.58;;;;;;;;;;4994276;28;20448;-75
2022/12/03 14:14:11;;;;;;;101.03;76.10;;;;;;;;;;4994848;28;20483;-74
2022/12/03 14:16:37;;;;;;;114.90;82.22;;;;;;;;;;4976883;28;20122;-76
2022/12/03 14:19:03;;;;;;;114.00;80.53;;;;;;;;;;4976380;28;20043;-74
2022/12/03 14:21:29;;;;;;;111.55;81.03;;;;;;;;;;4993283;28;20117;-75
2022/12/03 14:23:55;;;;;;;120.53;86.40;;;;;;;;;;4987159;28;20038;-76
2022/12/03 14:26:21;;;;;;;112.55;81.00;;;;;;;;;;4971320;28;20114;-77
2022/12/03 14:28:47;;;;;;;95.05;70.28;;;;;;;;;;4994126;28;20025;-76
2022/12/03 14:31:13;;;;;;;95.93;68.45;;;;;;;;;;4993992;28;20034;-76
2022/12/03 14:33:39;;;;;;;106.50;75.93;;;;;;;;;;4993992;28;20380;-76
2022/12/03 14:36:06;;;;;;;98.53;67.45;;;;;;;;;;4993967;28;20384;-77
2022/12/03 14:38:32;;;;;;;116.60;74.10;;;;;;;;;;4993944;28;20022;-76
2022/12/03 14:40:58;;;;;;;106.03;75.50;;;;;;;;;;4993894;28;20038;-74
2022/12/03 14:43:24;;;;;;;118.40;84.63;;;;;;;;;;4993938;28;20058;-76